createdAt,value
2018-12-07T00:01:38.258Z,720.10
2018-12-07T00:04:06.719Z,727.28
2018-12-07T00:06:35.989Z,726.00
2018-12-07T00:09:06.253Z,722.52
2018-12-07T00:11:34.625Z,711.92
2018-12-07T00:14:02.954Z,710.35
2018-12-07T00:16:31.379Z,703.42
2018-12-07T00:18:59.808Z,709.13
2018-12-07T00:21:28.138Z,694.60
2018-12-07T00:23:56.460Z,695.12
2018-12-07T00:26:24.965Z,703.40
2018-12-07T00:28:54.251Z,700.70
2018-12-07T00:31:22.533Z,683.72
2018-12-07T00:33:50.947Z,694.92
2018-12-07T00:36:19.285Z,696.77
2018-12-07T00:38:47.604Z,690.97
2018-12-07T00:41:15.918Z,689.90
2018-12-07T00:43:44.256Z,682.60
2018-12-07T00:46:12.549Z,690.33
2018-12-07T00:48:40.880Z,681.25
2018-12-07T00:51:09.247Z,683.65
2018-12-07T00:53:37.621Z,688.45
2018-12-07T00:56:06.011Z,684.25
2018-12-07T00:58:34.379Z,691.35
2018-12-07T01:01:03.786Z,685.67
2018-12-07T01:03:32.558Z,681.15
2018-12-07T01:06:01.030Z,682.12
2018-12-07T01:08:29.407Z,686.33
2018-12-07T01:10:57.739Z,678.60
2018-12-07T01:13:26.133Z,680.70
2018-12-07T01:15:54.465Z,680.50
2018-12-07T01:18:22.924Z,680.55
2018-12-07T01:20:51.362Z,683.72
2018-12-07T01:23:20.633Z,685.05
2018-12-07T01:25:49.060Z,685.52
2018-12-07T01:28:17.363Z,694.93
2018-12-07T01:30:45.685Z,685.02
2018-12-07T01:33:14.017Z,694.83
2018-12-07T01:35:42.413Z,700.33
2018-12-07T01:38:10.739Z,698.50
2018-12-07T01:40:39.170Z,696.55
2018-12-07T01:43:08.498Z,698.47
2018-12-07T01:45:37.767Z,694.62
2018-12-07T01:48:07.079Z,699.00
2018-12-07T01:50:35.516Z,698.52
2018-12-07T01:53:03.849Z,699.05
2018-12-07T01:55:32.242Z,708.93
2018-12-07T01:58:01.461Z,703.60
2018-12-07T02:00:29.747Z,714.08
2018-12-07T02:02:58.047Z,708.30
2018-12-07T02:05:27.551Z,712.35
2018-12-07T02:07:55.961Z,712.48
2018-12-07T02:10:24.366Z,714.95
2018-12-07T02:12:53.587Z,714.35
2018-12-07T02:15:21.921Z,729.75
2018-12-07T02:17:50.255Z,722.67
2018-12-07T02:20:19.133Z,722.13
2018-12-07T02:22:48.427Z,734.95
2018-12-07T02:25:16.798Z,732.10
2018-12-07T02:27:50.751Z,740.38
2018-12-07T02:30:19.128Z,738.92
2018-12-07T02:32:49.369Z,748.67
2018-12-07T02:35:18.231Z,741.95
2018-12-07T02:37:47.547Z,743.48
2018-12-07T02:40:15.904Z,746.25
2018-12-07T02:42:46.229Z,739.95
2018-12-07T02:45:14.562Z,751.27
2018-12-07T02:47:43.482Z,763.00
2018-12-07T02:50:11.820Z,752.20
2018-12-07T02:52:40.261Z,750.60
2018-12-07T02:55:09.546Z,746.12
2018-12-07T02:57:37.905Z,749.38
2018-12-07T03:00:07.580Z,752.23
2018-12-07T03:02:36.040Z,753.92
2018-12-07T03:05:05.612Z,752.80
2018-12-07T03:07:34.220Z,756.37
2018-12-07T03:10:03.898Z,744.08
2018-12-07T03:12:32.210Z,752.03
2018-12-07T03:15:00.538Z,755.85
2018-12-07T03:17:28.886Z,757.15
2018-12-07T03:19:58.115Z,755.40
2018-12-07T03:22:26.552Z,745.98
2018-12-07T03:24:54.881Z,751.27
2018-12-07T03:27:23.280Z,755.20
2018-12-07T03:29:51.738Z,761.10
2018-12-07T03:32:20.071Z,747.48
2018-12-07T03:34:48.498Z,747.05
2018-12-07T03:37:18.744Z,741.80
2018-12-07T03:39:47.105Z,742.58
2018-12-07T03:42:15.490Z,751.13
2018-12-07T03:44:44.893Z,738.50
2018-12-07T03:47:14.153Z,743.65
2018-12-07T03:49:42.471Z,734.70
2018-12-07T03:52:11.840Z,736.77
2018-12-07T03:54:40.789Z,733.87
2018-12-07T03:57:09.082Z,731.15
2018-12-07T03:59:38.416Z,736.85
2018-12-07T04:02:06.809Z,734.92
2018-12-07T04:04:35.169Z,737.48
2018-12-07T04:07:04.179Z,734.63
2018-12-07T04:09:32.542Z,732.08
2018-12-07T04:12:01.388Z,728.02
2018-12-07T04:14:29.804Z,729.83
2018-12-07T04:16:58.202Z,727.35
2018-12-07T04:19:26.517Z,727.53
2018-12-07T04:21:55.325Z,730.10
2018-12-07T04:24:24.617Z,724.05
2018-12-07T04:26:54.944Z,728.67
2018-12-07T04:29:23.322Z,715.00
2018-12-07T04:31:51.648Z,720.17
2018-12-07T04:34:20.147Z,716.30
2018-12-07T04:36:48.455Z,716.12
2018-12-07T04:39:16.844Z,714.32
2018-12-07T04:41:45.307Z,717.03
2018-12-07T04:44:14.525Z,712.25
2018-12-07T04:46:43.004Z,720.62
2018-12-07T04:49:11.375Z,716.67
2018-12-07T04:51:39.690Z,709.27
2018-12-07T04:54:09.029Z,716.88
2018-12-07T04:56:37.383Z,711.13
2018-12-07T04:59:05.850Z,719.00
2018-12-07T05:01:34.320Z,722.53
2018-12-07T05:04:02.740Z,717.48
2018-12-07T05:06:31.051Z,719.23
2018-12-07T05:08:59.840Z,720.48
2018-12-07T05:11:28.231Z,729.85
2018-12-07T05:13:56.720Z,731.02
2018-12-07T05:16:25.993Z,736.23
2018-12-07T05:18:54.962Z,731.37
2018-12-07T05:21:25.359Z,730.73
2018-12-07T05:23:53.742Z,726.63
2018-12-07T05:26:23.069Z,726.15
2018-12-07T05:28:51.442Z,728.55
2018-12-07T05:31:19.851Z,737.17
2018-12-07T05:33:48.215Z,740.87
2018-12-07T05:36:16.577Z,744.40
2018-12-07T05:38:44.913Z,738.40
2018-12-07T05:41:13.256Z,740.62
2018-12-07T05:43:54.691Z,731.90
2018-12-07T05:46:23.202Z,752.05
2018-12-07T05:48:51.634Z,744.85
2018-12-07T05:51:19.995Z,742.63
2018-12-07T05:53:48.445Z,751.45
2018-12-07T05:56:16.773Z,741.25
2018-12-07T05:58:45.259Z,750.45
2018-12-07T06:01:13.671Z,751.33
2018-12-07T06:03:42.031Z,758.72
2018-12-07T06:06:10.391Z,740.88
2018-12-07T06:08:38.710Z,746.87
2018-12-07T06:11:07.094Z,741.90
2018-12-07T06:13:35.437Z,734.27
2018-12-07T06:16:03.773Z,730.20
2018-12-07T06:18:32.229Z,741.65
2018-12-07T06:21:00.605Z,750.50
2018-12-07T06:23:28.921Z,740.10
2018-12-07T06:25:57.329Z,756.10
2018-12-07T06:28:26.565Z,748.95
2018-12-07T06:30:55.839Z,750.45
2018-12-07T06:33:24.309Z,749.08
2018-12-07T06:35:54.556Z,755.35
2018-12-07T06:38:25.198Z,743.05
2018-12-07T06:40:54.470Z,759.13
2018-12-07T06:43:23.741Z,742.03
2018-12-07T06:45:52.103Z,752.50
2018-12-07T06:48:20.441Z,747.83
2018-12-07T06:50:49.671Z,752.17
2018-12-07T06:53:18.631Z,762.38
2018-12-07T06:55:46.971Z,752.65
2018-12-07T06:58:15.391Z,740.60
2018-12-07T07:00:44.254Z,745.10
2018-12-07T07:03:12.602Z,754.30
2018-12-07T07:05:40.976Z,748.35
2018-12-07T07:08:09.365Z,746.42
2018-12-07T07:10:38.597Z,750.22
2018-12-07T07:13:07.547Z,743.58
2018-12-07T07:15:36.829Z,746.53
2018-12-07T07:18:05.233Z,740.77
2018-12-07T07:20:33.544Z,738.60
2018-12-07T07:23:02.566Z,743.13
2018-12-07T07:25:31.192Z,749.65
2018-12-07T07:27:59.553Z,745.23
2018-12-07T07:30:27.993Z,748.05
2018-12-07T07:32:56.393Z,754.10
2018-12-07T07:35:24.757Z,755.55
2018-12-07T07:37:54.101Z,758.02
2018-12-07T07:40:22.426Z,750.90
2018-12-07T07:42:51.520Z,757.55
2018-12-07T07:45:19.852Z,757.75
2018-12-07T07:47:48.881Z,751.27
2018-12-07T07:50:17.245Z,762.15
2018-12-07T07:52:45.643Z,762.33
2018-12-07T07:55:14.023Z,761.40
2018-12-07T07:57:42.371Z,757.40
2018-12-07T08:00:10.824Z,753.45
2018-12-07T08:05:37.733Z,751.33
2018-12-07T08:08:07.021Z,760.35
2018-12-07T08:10:35.397Z,757.17
2018-12-07T08:16:00.935Z,766.08
2018-12-07T08:18:29.273Z,772.97
2018-12-07T08:20:57.721Z,782.80
2018-12-07T08:23:26.062Z,782.42
2018-12-07T08:25:55.308Z,796.75
2018-12-07T08:28:23.618Z,791.60
2018-12-07T08:30:53.968Z,801.33
2018-12-07T08:33:23.229Z,797.30
2018-12-07T08:35:51.667Z,789.65
2018-12-07T08:38:19.994Z,804.57
2018-12-07T08:40:48.302Z,814.98
2018-12-07T08:43:16.647Z,805.57
2018-12-07T08:45:44.975Z,810.20
2018-12-07T08:48:13.590Z,806.42
2018-12-07T08:50:41.904Z,808.07
2018-12-07T08:53:10.260Z,812.60
2018-12-07T08:55:38.661Z,818.62
2018-12-07T08:58:06.994Z,815.50
2018-12-07T09:00:37.305Z,814.02
2018-12-07T09:03:05.817Z,827.17
2018-12-07T09:05:35.088Z,825.50
2018-12-07T09:11:01.290Z,852.28
2018-12-07T09:13:30.246Z,863.65
2018-12-07T09:15:58.546Z,863.33
2018-12-07T09:18:26.981Z,867.02
2018-12-07T09:20:55.367Z,861.90
2018-12-07T09:23:23.665Z,872.38
2018-12-07T09:25:51.995Z,891.25
2018-12-07T09:28:20.393Z,871.08
2018-12-07T09:30:49.617Z,873.87
2018-12-07T09:33:17.938Z,877.17
2018-12-07T09:35:48.249Z,885.00
2018-12-07T09:38:17.600Z,881.80
2018-12-07T09:40:46.160Z,878.70
2018-12-07T09:43:15.421Z,887.80
2018-12-07T09:45:43.770Z,877.30
2018-12-07T09:48:12.158Z,879.95
2018-12-07T09:50:41.489Z,871.95
2018-12-07T09:53:09.824Z,868.75
2018-12-07T09:55:38.908Z,855.85
2018-12-07T09:58:08.226Z,861.12
2018-12-07T10:00:36.586Z,854.50
2018-12-07T10:03:04.953Z,860.90
2018-12-07T10:05:35.181Z,857.10
2018-12-07T10:08:03.630Z,875.90
2018-12-07T10:10:32.163Z,872.93
2018-12-07T10:13:07.722Z,883.40
2018-12-07T10:15:31.861Z,893.35
2018-12-07T10:18:00.792Z,905.87
2018-12-07T10:20:30.125Z,898.00
2018-12-07T10:22:59.419Z,910.05
2018-12-07T10:25:29.665Z,914.02
2018-12-07T10:27:58.632Z,912.33
2018-12-07T10:30:26.967Z,912.67
2018-12-07T10:32:56.255Z,913.35
2018-12-07T10:35:24.588Z,911.97
2018-12-07T10:37:53.067Z,901.37
2018-12-07T10:40:21.394Z,912.90
2018-12-07T10:42:49.696Z,917.98
2018-12-07T10:45:18.113Z,915.75
2018-12-07T10:47:50.237Z,915.85
2018-12-07T10:50:16.825Z,912.10
2018-12-07T10:52:46.219Z,916.95
2018-12-07T10:55:14.536Z,921.12
2018-12-07T10:57:44.295Z,920.95
2018-12-07T11:00:22.787Z,926.60
2018-12-07T11:02:52.714Z,925.98
2018-12-07T11:05:44.942Z,934.17
2018-12-07T11:08:19.284Z,926.62
2018-12-07T11:10:53.283Z,924.38
2018-12-07T11:13:28.325Z,932.20
2018-12-07T11:16:02.461Z,932.60
2018-12-07T11:18:36.631Z,934.17
2018-12-07T11:21:10.598Z,933.33
2018-12-07T11:23:44.536Z,937.80
2018-12-07T11:29:16.775Z,931.40
2018-12-07T11:34:52.073Z,918.67
2018-12-07T11:37:20.438Z,905.65
2018-12-07T11:39:49.710Z,885.30
2018-12-07T11:42:18.104Z,881.23
2018-12-07T11:44:46.394Z,872.95
2018-12-07T11:47:14.758Z,882.58
2018-12-07T11:49:43.127Z,879.18
2018-12-07T11:52:12.118Z,876.75
2018-12-07T11:54:40.469Z,877.58
2018-12-07T11:57:08.827Z,884.40
2018-12-07T11:59:37.168Z,889.20
2018-12-07T12:02:05.596Z,887.73
2018-12-07T12:04:34.032Z,887.97
2018-12-07T12:07:02.379Z,908.00
2018-12-07T12:09:30.720Z,899.83
2018-12-07T12:11:59.047Z,902.20
2018-12-07T12:14:27.465Z,890.27
2018-12-07T12:16:55.774Z,893.22
2018-12-07T12:19:25.060Z,884.17
2018-12-07T12:21:54.556Z,877.02
2018-12-07T12:24:22.890Z,876.30
2018-12-07T12:26:52.223Z,874.45
2018-12-07T12:29:21.575Z,873.12
2018-12-07T12:31:50.567Z,875.35
2018-12-07T12:34:18.934Z,878.73
2018-12-07T12:36:48.728Z,868.82
2018-12-07T12:39:18.090Z,860.10
2018-12-07T12:41:46.923Z,863.70
2018-12-07T12:44:15.696Z,846.52
2018-12-07T12:46:44.176Z,839.90
2018-12-07T12:49:12.518Z,823.10
2018-12-07T12:51:41.473Z,821.45
2018-12-07T12:54:09.872Z,817.80
2018-12-07T12:56:39.107Z,819.95
2018-12-07T12:59:07.435Z,824.68
2018-12-07T13:01:35.869Z,839.42
2018-12-07T13:04:04.219Z,828.63
2018-12-07T13:06:32.635Z,828.40
2018-12-07T13:09:01.112Z,831.80
2018-12-07T13:11:29.482Z,827.10
2018-12-07T13:13:57.824Z,839.27
2018-12-07T13:16:26.364Z,836.52
2018-12-07T13:18:54.736Z,842.20
2018-12-07T13:21:23.219Z,841.05
2018-12-07T13:23:51.821Z,836.63
2018-12-07T13:26:20.876Z,843.13
2018-12-07T13:28:50.230Z,835.60
2018-12-07T13:31:18.537Z,832.40
2018-12-07T13:33:46.859Z,850.07
2018-12-07T13:36:15.206Z,835.30
2018-12-07T13:38:43.538Z,841.15
2018-12-07T13:41:11.991Z,834.25
2018-12-07T13:43:40.498Z,840.35
2018-12-07T13:49:07.220Z,835.45
2018-12-07T13:51:35.769Z,845.17
2018-12-07T13:54:04.138Z,829.40
2018-12-07T13:56:32.638Z,846.33
2018-12-07T13:59:01.162Z,832.80
2018-12-07T14:01:29.741Z,845.95
2018-12-07T14:03:58.208Z,853.50
2018-12-07T14:06:26.858Z,850.93
2018-12-07T14:08:55.444Z,843.50
2018-12-07T14:11:24.194Z,855.45
2018-12-07T14:13:52.782Z,853.40
2018-12-07T14:16:21.271Z,856.32
2018-12-07T14:18:49.940Z,848.78
2018-12-07T14:21:18.728Z,855.27
2018-12-07T14:23:47.291Z,839.30
2018-12-07T14:26:15.893Z,838.90
2018-12-07T14:28:44.321Z,831.72
2018-12-07T14:31:12.942Z,841.07
2018-12-07T14:33:41.463Z,820.23
2018-12-07T14:36:10.032Z,814.87
2018-12-07T14:38:39.103Z,811.20
2018-12-07T14:41:07.500Z,809.85
2018-12-07T14:43:36.051Z,799.67
2018-12-07T14:46:04.671Z,796.37
2018-12-07T14:48:33.242Z,788.85
2018-12-07T14:51:01.708Z,779.77
2018-12-07T14:53:31.002Z,780.70
2018-12-07T14:55:59.737Z,782.43
2018-12-07T14:58:28.301Z,775.40
2018-12-07T15:00:57.045Z,772.02
2018-12-07T15:03:25.592Z,776.37
2018-12-07T15:05:54.140Z,767.80
2018-12-07T15:08:23.466Z,763.25
2018-12-07T15:10:51.941Z,758.80
2018-12-07T15:13:20.382Z,769.95
2018-12-07T15:15:49.118Z,761.20
2018-12-07T15:18:17.775Z,744.00
2018-12-07T15:20:46.278Z,752.65
2018-12-07T15:23:15.128Z,751.75
2018-12-07T15:25:44.563Z,737.23
2018-12-07T15:28:13.156Z,732.33
2018-12-07T15:30:41.625Z,744.30
2018-12-07T15:33:10.259Z,744.90
2018-12-07T15:35:38.979Z,733.15
2018-12-07T15:38:07.443Z,732.12
2018-12-07T15:40:35.835Z,717.40
2018-12-07T15:43:04.423Z,727.75
2018-12-07T15:45:32.957Z,715.73
2018-12-07T15:48:02.245Z,719.62
2018-12-07T15:50:30.804Z,703.20
2018-12-07T15:52:59.301Z,701.17
2018-12-07T15:55:28.224Z,707.73
2018-12-07T15:57:56.645Z,700.33
2018-12-07T16:00:25.311Z,696.80
2018-12-07T16:02:55.626Z,706.58
2018-12-07T16:05:24.129Z,697.23
2018-12-07T16:07:52.769Z,679.92
2018-12-07T16:10:21.303Z,697.30
2018-12-07T16:12:49.812Z,700.12
2018-12-07T16:15:18.216Z,685.97
2018-12-07T16:17:46.828Z,682.02
2018-12-07T16:20:15.330Z,695.45
2018-12-07T16:22:43.826Z,701.55
2018-12-07T16:25:12.423Z,680.77
2018-12-07T16:27:40.940Z,686.60
2018-12-07T16:30:10.632Z,682.08
2018-12-07T16:32:39.283Z,678.90
2018-12-07T16:35:07.730Z,682.95
2018-12-07T16:37:36.357Z,671.95
2018-12-07T16:40:06.658Z,673.15
2018-12-07T16:42:36.039Z,677.08
2018-12-07T16:45:04.907Z,660.70
2018-12-07T16:50:35.420Z,653.05
2018-12-07T16:53:03.774Z,623.90
2018-12-07T16:55:32.145Z,630.98
2018-12-07T16:58:01.474Z,624.70
2018-12-07T17:00:30.001Z,618.58
2018-12-07T17:02:58.443Z,608.70
2018-12-07T17:05:27.084Z,610.60
2018-12-07T17:07:55.841Z,595.62
2018-12-07T17:10:25.282Z,595.85
2018-12-07T17:15:59.336Z,598.28
2018-12-07T17:18:27.654Z,606.42
2018-12-07T17:20:57.023Z,599.42
2018-12-07T17:23:25.502Z,596.87
2018-12-07T17:25:54.194Z,602.92
2018-12-07T17:28:22.871Z,603.07
2018-12-07T17:30:51.567Z,592.53
2018-12-07T17:33:20.629Z,596.63
2018-12-07T17:35:48.994Z,589.60
2018-12-07T17:38:17.365Z,596.37
2018-12-07T17:40:46.441Z,589.83
2018-12-07T17:43:14.964Z,608.40
2018-12-07T17:45:43.372Z,601.08
2018-12-07T17:48:12.017Z,594.70
2018-12-07T17:50:40.539Z,603.00
2018-12-07T17:53:09.778Z,608.53
2018-12-07T17:55:38.141Z,624.95
2018-12-07T17:58:07.256Z,620.15
2018-12-07T18:00:36.509Z,631.00
2018-12-07T18:03:04.889Z,648.83
2018-12-07T18:05:34.007Z,660.92
2018-12-07T18:08:02.451Z,664.77
2018-12-07T18:10:31.137Z,660.63
2018-12-07T18:12:59.620Z,674.98
2018-12-07T18:15:28.190Z,670.83
2018-12-07T18:17:56.567Z,665.73
2018-12-07T18:20:25.244Z,678.75
2018-12-07T18:22:53.794Z,687.60
2018-12-07T18:25:22.410Z,680.03
2018-12-07T18:27:51.013Z,691.20
2018-12-07T18:30:19.532Z,695.03
2018-12-07T18:32:48.994Z,702.37
2018-12-07T18:35:17.496Z,698.65
2018-12-07T18:37:46.017Z,712.20
2018-12-07T18:40:14.621Z,709.37
2018-12-07T18:42:43.030Z,710.50
2018-12-07T18:45:11.710Z,712.25
2018-12-07T18:47:40.321Z,731.17
2018-12-07T18:50:08.878Z,716.08
2018-12-07T18:52:37.440Z,729.17
2018-12-07T18:55:06.776Z,729.95
2018-12-07T18:57:35.140Z,736.55
2018-12-07T19:00:05.143Z,721.05
2018-12-07T19:02:33.620Z,726.00
2018-12-07T19:05:02.358Z,733.17
2018-12-07T19:07:30.991Z,729.67
2018-12-07T19:09:59.454Z,728.50
2018-12-07T19:12:27.956Z,731.65
2018-12-07T19:14:56.569Z,729.50
2018-12-07T19:17:25.023Z,723.78
2018-12-07T19:19:53.680Z,729.95
2018-12-07T19:22:22.955Z,726.15
2018-12-07T19:24:52.438Z,728.60
2018-12-07T19:27:22.932Z,726.25
2018-12-07T19:29:52.391Z,719.58
2018-12-07T19:32:21.827Z,716.38
2018-12-07T19:34:50.481Z,713.40
2018-12-07T19:37:19.018Z,706.23
2018-12-07T19:39:47.461Z,711.73
2018-12-07T19:42:16.302Z,718.47
2018-12-07T19:44:45.218Z,704.23
2018-12-07T19:47:13.690Z,713.15
2018-12-07T19:52:43.215Z,696.35
2018-12-07T19:55:11.589Z,700.60
2018-12-07T19:57:40.846Z,699.25
2018-12-07T20:00:10.584Z,696.22
2018-12-07T20:02:39.244Z,680.95
2018-12-07T20:05:07.692Z,687.88
2018-12-07T20:07:36.259Z,691.02
2018-12-07T20:10:06.089Z,686.77
2018-12-07T20:12:34.664Z,672.83
2018-12-07T20:15:03.360Z,677.88
2018-12-07T20:17:33.261Z,678.77
2018-12-07T20:20:03.143Z,672.15
2018-12-07T20:22:33.800Z,672.85
2018-12-07T20:25:02.303Z,677.20
2018-12-07T20:27:31.785Z,666.98
2018-12-07T20:32:57.862Z,664.08
2018-12-07T20:35:26.320Z,666.95
2018-12-07T20:37:54.852Z,662.48
2018-12-07T20:40:23.252Z,670.52
2018-12-07T20:42:52.171Z,666.65
2018-12-07T20:45:21.375Z,672.48
2018-12-07T20:47:49.925Z,660.52
2018-12-07T20:50:18.227Z,662.10
2018-12-07T20:52:46.788Z,670.35
2018-12-07T20:55:15.250Z,669.73
2018-12-07T20:57:43.800Z,675.87
2018-12-07T21:00:12.405Z,674.87
2018-12-07T21:02:41.495Z,677.05
2018-12-07T21:07:06.711Z,678.90
2018-12-07T21:09:35.356Z,686.77
2018-12-07T21:12:10.809Z,686.67
2018-12-07T21:14:39.553Z,683.95
2018-12-07T21:17:10.215Z,703.70
2018-12-07T21:19:43.499Z,700.98
2018-12-07T21:22:12.329Z,703.42
2018-12-07T21:24:40.937Z,714.60
2018-12-07T21:27:09.418Z,708.15
2018-12-07T21:29:38.267Z,693.90
2018-12-07T21:32:09.751Z,671.03
2018-12-07T21:37:36.320Z,580.45
2018-12-07T21:40:08.875Z,558.33
2018-12-07T21:42:37.554Z,537.17
2018-12-07T21:45:06.309Z,537.05
2018-12-07T21:47:45.354Z,533.42
2018-12-07T21:50:15.813Z,527.62
2018-12-07T21:52:44.392Z,524.27
2018-12-07T21:55:13.219Z,529.77
2018-12-07T21:57:42.354Z,540.55
2018-12-07T22:00:11.029Z,532.17
2018-12-07T22:02:39.947Z,528.70
2018-12-07T22:05:09.259Z,538.22
2018-12-07T22:07:37.866Z,525.60
2018-12-07T22:10:06.435Z,532.65
2018-12-07T22:12:34.962Z,525.77
2018-12-07T22:15:03.865Z,532.23
2018-12-07T22:17:32.622Z,522.42
2018-12-07T22:20:00.977Z,522.63
2018-12-07T22:22:29.657Z,519.90
2018-12-07T22:24:58.190Z,536.88
2018-12-07T22:27:26.779Z,523.78
2018-12-07T22:29:55.237Z,516.93
2018-12-07T22:32:23.640Z,523.08
2018-12-07T22:34:52.168Z,518.50
2018-12-07T22:37:20.559Z,523.23
2018-12-07T22:39:48.981Z,534.27
2018-12-07T22:42:17.499Z,527.00
2018-12-07T22:44:46.158Z,522.20
2018-12-07T22:47:14.733Z,526.57
2018-12-07T22:49:43.149Z,521.33
2018-12-07T22:52:11.606Z,503.38
2018-12-07T22:54:40.926Z,505.83
2018-12-07T22:57:09.235Z,506.40
2018-12-07T22:59:37.592Z,493.27
2018-12-07T23:02:06.949Z,495.20
2018-12-07T23:04:37.243Z,482.43
2018-12-07T23:07:05.831Z,488.22
2018-12-07T23:09:34.683Z,485.30
2018-12-07T23:12:02.989Z,481.73
2018-12-07T23:14:31.420Z,477.30
2018-12-07T23:16:59.729Z,474.57
2018-12-07T23:19:28.162Z,466.93
2018-12-07T23:21:57.547Z,464.97
2018-12-07T23:24:26.142Z,463.25
2018-12-07T23:26:54.431Z,464.00
2018-12-07T23:29:24.676Z,465.17
2018-12-07T23:31:53.185Z,469.00
2018-12-07T23:34:21.534Z,453.60
2018-12-07T23:36:49.918Z,461.77
2018-12-07T23:39:18.193Z,452.25
2018-12-07T23:41:46.576Z,457.08
2018-12-07T23:44:15.829Z,456.70
2018-12-07T23:46:44.334Z,452.25
2018-12-07T23:49:12.776Z,458.70
2018-12-07T23:51:41.170Z,447.05
2018-12-07T23:54:10.537Z,446.97
2018-12-07T23:56:40.873Z,444.17
2018-12-07T23:59:09.181Z,445.90
